Time;durP1;ratioP1;P1;durP2;ratioP2;P2;SDS_P1;SDS_P2;PMS_P1;PMS_P2;Temp;Humidity;BMP_temperature;BMP_pressure;BME280_temperature;BME280_humidity;BME280_pressure;Samples;Min_cycle;Max_cycle;Signal;HPM_P1;HPM_P2
2022/08/26 00:01:16;;;;;;;5.93;1.40;;;21.40;99.90;;;;;;5054581;28;20536;-85
2022/08/26 00:03:43;;;;;;;3.30;1.15;;;21.50;99.90;;;;;;5055499;28;20071;-83
2022/08/26 00:06:09;;;;;;;11.68;1.60;;;21.40;99.90;;;;;;5055279;28;20033;-83
2022/08/26 00:08:35;;;;;;;6.97;1.75;;;21.50;99.90;;;;;;5055120;28;20032;-85
2022/08/26 00:11:01;;;;;;;11.65;1.75;;;21.50;99.90;;;;;;5055351;28;20500;-85
2022/08/26 00:13:28;;;;;;;5.03;1.35;;;21.50;99.90;;;;;;5053660;28;20025;-85
2022/08/26 00:15:54;;;;;;;12.75;1.63;;;21.60;99.90;;;;;;5055122;28;20044;-84
2022/08/26 00:18:20;;;;;;;6.93;1.40;;;21.50;99.90;;;;;;5054875;28;20029;-79
2022/08/26 00:20:46;;;;;;;9.93;1.65;;;21.30;99.90;;;;;;5054581;28;20059;-83
2022/08/26 00:23:12;;;;;;;9.32;1.33;;;21.30;99.90;;;;;;5055123;28;20438;-83
2022/08/26 00:25:37;;;;;;;8.48;1.58;;;21.30;99.90;;;;;;5055162;28;20013;-85
2022/08/26 00:28:04;;;;;;;9.55;1.90;;;21.20;99.90;;;;;;5055071;28;20481;-85
2022/08/26 00:30:31;;;;;;;7.88;1.70;;;21.20;99.90;;;;;;5053464;28;20029;-85
2022/08/26 00:32:57;;;;;;;8.95;2.17;;;21.20;99.90;;;;;;5070336;28;20025;-86
2022/08/26 00:35:25;;;;;;;10.63;1.60;;;21.40;99.90;;;;;;5053382;28;20055;-87
2022/08/26 00:37:51;;;;;;;7.97;2.00;;;21.50;99.90;;;;;;5055140;28;20025;-86
2022/08/26 00:40:26;;;;;;;15.80;1.95;;;21.40;99.90;;;;;;5055327;28;20355;-85
2022/08/26 00:42:51;;;;;;;10.15;2.53;;;21.20;99.90;;;;;;5054782;28;20401;-86
2022/08/26 00:45:17;;;;;;;8.57;1.60;;;21.20;99.90;;;;;;5070203;28;20029;-85
2022/08/26 00:47:48;;;;;;;9.77;2.03;;;21.10;99.90;;;;;;5054765;28;20029;-85
2022/08/26 00:50:19;;;;;;;7.63;1.30;;;21.20;99.90;;;;;;5053011;28;20033;-85
2022/08/26 00:52:45;;;;;;;4.47;1.48;;;21.20;99.90;;;;;;5053391;28;20032;-83
2022/08/26 00:55:28;;;;;;;9.15;1.75;;;21.20;99.90;;;;;;5054504;28;20021;-82
2022/08/26 00:57:54;;;;;;;8.48;1.60;;;21.10;99.90;;;;;;5054572;28;20036;-87
2022/08/26 01:00:26;;;;;;;8.93;1.60;;;21.10;99.90;;;;;;5054355;28;20117;-80
2022/08/26 01:02:54;;;;;;;6.57;1.60;;;21.10;99.90;;;;;;5053535;28;20028;-81
2022/08/26 01:05:21;;;;;;;8.80;1.90;;;21.00;99.90;;;;;;5055581;28;20358;-81
2022/08/26 01:07:47;;;;;;;9.82;1.35;;;21.00;99.90;;;;;;5056186;28;20049;-77
2022/08/26 01:10:18;;;;;;;10.38;2.05;;;20.90;99.90;;;;;;5054118;28;20053;-84
2022/08/26 01:12:48;;;;;;;6.55;1.88;;;20.90;99.90;;;;;;5054052;28;20377;-84
2022/08/26 01:15:23;;;;;;;10.93;1.67;;;20.80;99.90;;;;;;5054200;28;20552;-82
2022/08/26 01:17:48;;;;;;;9.23;1.70;;;21.00;99.90;;;;;;5053862;28;20308;-85
2022/08/26 01:20:32;;;;;;;8.82;1.30;;;21.00;99.90;;;;;;5054032;28;20082;-81
2022/08/26 01:23:06;;;;;;;7.63;1.70;;;21.00;99.90;;;;;;5053943;28;20029;-84
2022/08/26 01:25:35;;;;;;;8.25;1.70;;;21.10;99.90;;;;;;5053918;28;20037;-84
2022/08/26 01:28:06;;;;;;;5.90;1.52;;;21.00;99.90;;;;;;5053874;28;20056;-87
2022/08/26 01:30:34;;;;;;;8.13;1.35;;;20.90;99.90;;;;;;5069568;28;20044;-83
2022/08/26 01:33:03;;;;;;;8.05;1.40;;;21.00;99.90;;;;;;5053650;28;20017;-83
2022/08/26 01:35:29;;;;;;;7.10;1.77;;;20.90;99.90;;;;;;5053976;28;20037;-83
2022/08/26 01:37:56;;;;;;;8.20;1.73;;;20.90;99.90;;;;;;5053886;28;20033;-85
2022/08/26 01:40:30;;;;;;;6.97;1.50;;;21.10;99.90;;;;;;5054262;28;20532;-82
2022/08/26 01:42:58;;;;;;;8.68;2.35;;;21.00;99.90;;;;;;5054362;28;20021;-83
2022/08/26 01:45:27;;;;;;;5.22;1.30;;;20.90;99.90;;;;;;5054402;28;20036;-81
2022/08/26 01:47:55;;;;;;;9.95;1.65;;;20.90;99.90;;;;;;5053497;28;20073;-86
2022/08/26 01:50:26;;;;;;;7.38;1.92;;;21.00;99.90;;;;;;5053956;28;20036;-79
2022/08/26 01:52:54;;;;;;;14.23;2.10;;;21.00;99.90;;;;;;5053390;28;20058;-79
2022/08/26 01:55:21;;;;;;;9.30;1.75;;;20.90;99.90;;;;;;5053841;28;20421;-82
2022/08/26 01:57:51;;;;;;;11.13;2.00;;;20.90;99.90;;;;;;5052386;28;20033;-81
2022/08/26 02:00:17;;;;;;;5.78;2.00;;;20.90;99.90;;;;;;5054045;28;20111;-84
2022/08/26 02:02:46;;;;;;;10.43;1.63;;;20.80;99.90;;;;;;5053549;28;20033;-86
2022/08/26 02:05:18;;;;;;;6.32;1.92;;;20.80;99.90;;;;;;5053845;28;20135;-81
2022/08/26 02:07:46;;;;;;;7.45;1.95;;;20.70;99.90;;;;;;5053550;28;20029;-80
2022/08/26 02:10:13;;;;;;;4.63;1.70;;;20.70;99.90;;;;;;5053475;28;20040;-82
2022/08/26 02:12:39;;;;;;;8.20;1.98;;;20.70;99.90;;;;;;5053480;28;20024;-83
2022/08/26 02:15:08;;;;;;;17.17;2.28;;;20.70;99.90;;;;;;5053290;28;20420;-80
2022/08/26 02:17:40;;;;;;;8.13;2.33;;;20.80;99.90;;;;;;5052761;28;20013;-88
2022/08/26 02:20:09;;;;;;;12.00;2.20;;;20.80;99.90;;;;;;5053125;28;20043;-84
2022/08/26 02:22:35;;;;;;;6.40;1.95;;;20.70;99.90;;;;;;5035682;28;20049;-85
2022/08/26 02:25:17;;;;;;;9.75;2.20;;;20.60;99.90;;;;;;5053119;28;20516;-85
2022/08/26 02:27:46;;;;;;;5.15;1.20;;;20.50;99.90;;;;;;5053344;28;20033;-84
2022/08/26 02:30:21;;;;;;;7.45;1.48;;;20.60;99.90;;;;;;5051964;28;20199;-87
2022/08/26 02:32:48;;;;;;;4.88;1.60;;;20.60;99.90;;;;;;5052586;28;20029;-87
2022/08/26 02:35:16;;;;;;;6.13;1.17;;;20.70;99.90;;;;;;5053251;28;20033;-88
2022/08/26 02:37:42;;;;;;;7.13;1.30;;;20.70;99.90;;;;;;5052012;28;20029;-88
2022/08/26 02:40:11;;;;;;;9.68;1.10;;;20.70;99.90;;;;;;5052733;28;20032;-88
2022/08/26 02:42:37;;;;;;;8.98;1.58;;;20.70;99.90;;;;;;5053393;28;20492;-75
2022/08/26 02:45:05;;;;;;;4.63;0.98;;;20.60;99.90;;;;;;5052539;28;20025;-77
2022/08/26 02:47:32;;;;;;;6.30;1.10;;;20.60;99.90;;;;;;5052797;28;20044;-77
2022/08/26 02:49:58;;;;;;;8.73;1.90;;;20.60;99.90;;;;;;5052442;28;20033;-79
2022/08/26 02:52:24;;;;;;;5.78;1.50;;;20.60;99.90;;;;;;5052464;28;20130;-76
2022/08/26 02:54:50;;;;;;;3.88;1.27;;;20.50;99.90;;;;;;5052136;28;20439;-82
2022/08/26 02:57:16;;;;;;;4.32;1.20;;;20.60;99.90;;;;;;5052794;28;20029;-80
2022/08/26 02:59:43;;;;;;;5.38;1.60;;;20.70;99.90;;;;;;5052408;28;20037;-77
2022/08/26 03:02:09;;;;;;;5.55;1.30;;;20.60;99.90;;;;;;5052475;28;20051;-81
2022/08/26 03:04:37;;;;;;;8.13;1.67;;;20.60;99.90;;;;;;5053623;28;20036;-79
2022/08/26 03:07:04;;;;;;;5.13;1.10;;;20.50;99.90;;;;;;5056589;28;20029;-82
2022/08/26 03:09:30;;;;;;;8.02;1.20;;;20.50;99.90;;;;;;5056571;28;20032;-80
2022/08/26 03:11:56;;;;;;;9.40;1.48;;;20.70;99.90;;;;;;5056517;28;20452;-80
2022/08/26 03:14:23;;;;;;;5.95;1.85;;;20.60;99.90;;;;;;5055941;28;20370;-81
2022/08/26 03:16:51;;;;;;;6.45;1.33;;;20.60;99.90;;;;;;5056441;28;20021;-81
2022/08/26 03:19:17;;;;;;;7.28;1.52;;;20.60;99.90;;;;;;5056217;28;20362;-80
2022/08/26 03:21:43;;;;;;;6.60;1.20;;;20.40;99.90;;;;;;5055973;28;20029;-77
2022/08/26 03:24:10;;;;;;;4.32;0.80;;;20.50;99.90;;;;;;5056169;28;20063;-78
2022/08/26 03:26:36;;;;;;;5.15;1.00;;;20.40;99.90;;;;;;5056486;28;20100;-85
2022/08/26 03:31:51;;;;;;;6.57;1.58;;;20.40;99.90;;;;;;5045569;28;20493;-80
2022/08/26 03:34:17;;;;;;;4.40;1.10;;;20.50;99.90;;;;;;5055793;28;20052;-78
2022/08/26 03:36:43;;;;;;;5.20;1.10;;;20.50;99.90;;;;;;5054861;28;20384;-78
2022/08/26 03:39:11;;;;;;;9.38;1.27;;;20.50;99.90;;;;;;5055748;28;20078;-77
2022/08/26 03:41:37;;;;;;;6.97;1.35;;;20.40;99.90;;;;;;5055763;28;20028;-75
2022/08/26 03:44:04;;;;;;;6.65;1.55;;;20.50;99.90;;;;;;5055459;28;20484;-79
2022/08/26 03:46:31;;;;;;;6.68;1.70;;;20.40;99.90;;;;;;5055861;28;20497;-85
2022/08/26 03:48:59;;;;;;;8.05;1.55;;;20.40;99.90;;;;;;5055703;28;20674;-87
2022/08/26 03:51:25;;;;;;;7.07;1.30;;;20.30;99.90;;;;;;5055894;28;20049;-87
2022/08/26 03:53:51;;;;;;;4.15;1.00;;;20.30;99.90;;;;;;5055677;28;20072;-88
2022/08/26 03:56:17;;;;;;;4.93;1.40;;;20.40;99.90;;;;;;5055621;28;20072;-83
2022/08/26 03:58:43;;;;;;;7.93;1.38;;;20.50;99.90;;;;;;5055489;28;20033;-88
2022/08/26 04:01:14;;;;;;;6.97;1.10;;;20.50;99.90;;;;;;5055810;28;20025;-87
2022/08/26 04:03:58;;;;;;;3.30;1.40;;;20.30;99.90;;;;;;5057591;28;20111;-88
2022/08/26 04:06:28;;;;;;;7.38;1.20;;;20.20;99.90;;;;;;5056293;28;20072;-84
2022/08/26 04:08:57;;;;;;;5.57;1.25;;;20.30;99.90;;;;;;5055644;28;20433;-88
2022/08/26 04:11:30;;;;;;;6.57;1.30;;;20.20;99.90;;;;;;5055567;28;20137;-88
2022/08/26 04:14:00;;;;;;;4.03;1.20;;;20.30;99.90;;;;;;5054090;28;20119;-87
2022/08/26 04:16:28;;;;;;;13.82;1.38;;;20.40;99.90;;;;;;5054498;28;20473;-88
2022/08/26 04:18:55;;;;;;;7.78;1.90;;;20.40;99.90;;;;;;5055065;28;20098;-87
2022/08/26 04:21:21;;;;;;;9.27;1.75;;;20.40;99.90;;;;;;5053873;28;20100;-86
2022/08/26 04:23:48;;;;;;;7.72;1.48;;;20.40;99.90;;;;;;5055658;28;20036;-88
2022/08/26 04:26:15;;;;;;;7.57;1.48;;;20.40;99.90;;;;;;5054936;28;20033;-87
2022/08/26 04:28:41;;;;;;;10.38;1.92;;;20.40;99.90;;;;;;5054405;28;20132;-89
2022/08/26 04:31:16;;;;;;;3.90;1.08;;;20.30;99.90;;;;;;5055200;28;20533;-86
2022/08/26 04:33:44;;;;;;;9.63;1.98;;;20.20;99.90;;;;;;5041999;28;20029;-86
2022/08/26 04:36:10;;;;;;;9.13;1.80;;;20.30;99.90;;;;;;5055294;28;20040;-86
2022/08/26 04:38:36;;;;;;;9.00;1.55;;;20.30;99.90;;;;;;5054822;28;20461;-89
2022/08/26 04:41:03;;;;;;;10.82;1.50;;;20.20;99.90;;;;;;5054666;28;20041;-87
2022/08/26 04:43:30;;;;;;;7.32;1.42;;;20.20;99.90;;;;;;5053928;28;20413;-88
2022/08/26 04:46:01;;;;;;;7.07;1.10;;;20.20;99.90;;;;;;5055180;28;20032;-88
2022/08/26 04:48:30;;;;;;;6.80;1.20;;;20.10;99.90;;;;;;5054842;28;20025;-80
2022/08/26 04:50:57;;;;;;;3.97;1.27;;;20.10;99.90;;;;;;5054615;28;20029;-77
2022/08/26 04:53:23;;;;;;;6.63;1.30;;;20.10;99.90;;;;;;5056336;28;20104;-80
2022/08/26 04:55:49;;;;;;;9.45;1.25;;;20.20;99.90;;;;;;5053661;28;20453;-78
2022/08/26 04:58:16;;;;;;;5.93;1.25;;;20.30;99.90;;;;;;5054174;28;20024;-81
2022/08/26 05:00:43;;;;;;;7.60;1.35;;;20.30;99.90;;;;;;5054263;28;20180;-75
2022/08/26 05:03:09;;;;;;;7.20;1.33;;;20.60;99.90;;;;;;5054395;28;20112;-75
2022/08/26 05:05:41;;;;;;;5.15;1.20;;;20.60;99.90;;;;;;5054034;28;20214;-78
2022/08/26 05:08:09;;;;;;;8.10;1.83;;;20.70;99.90;;;;;;5053890;28;20025;-76
2022/08/26 05:10:42;;;;;;;7.82;1.58;;;20.80;99.90;;;;;;5053725;28;20029;-77
2022/08/26 05:13:08;;;;;;;20.40;2.20;;;20.70;99.90;;;;;;5054253;28;20029;-76
2022/08/26 05:15:35;;;;;;;10.68;1.75;;;20.70;99.90;;;;;;5054008;28;20154;-81
2022/08/26 05:18:04;;;;;;;8.95;1.70;;;20.90;99.90;;;;;;5054138;28;20036;-75
2022/08/26 05:20:31;;;;;;;9.88;1.30;;;20.90;99.90;;;;;;5054102;28;20028;-76
2022/08/26 05:23:00;;;;;;;10.77;1.83;;;20.80;99.90;;;;;;5052350;28;20131;-81
2022/08/26 05:25:29;;;;;;;13.00;1.80;;;20.90;99.90;;;;;;5054087;28;20037;-85
2022/08/26 05:27:55;;;;;;;6.45;1.23;;;21.00;99.90;;;;;;5053746;28;20496;-78
2022/08/26 05:30:21;;;;;;;6.35;1.20;;;20.80;99.90;;;;;;5053886;28;20052;-77
2022/08/26 05:32:49;;;;;;;8.10;1.15;;;20.80;99.90;;;;;;5054088;28;20025;-77
2022/08/26 05:35:16;;;;;;;6.32;1.30;;;20.80;99.90;;;;;;5054072;28;20052;-79
2022/08/26 05:37:42;;;;;;;8.65;1.50;;;20.80;99.90;;;;;;5055067;28;20484;-82
2022/08/26 05:40:09;;;;;;;5.63;1.60;;;20.80;99.90;;;;;;5065792;28;20090;-78
2022/08/26 05:42:35;;;;;;;3.78;1.13;;;20.70;99.90;;;;;;5054021;28;20457;-79
2022/08/26 05:45:00;;;;;;;3.90;1.20;;;20.70;99.90;;;;;;5053333;28;20070;-76
2022/08/26 05:47:27;;;;;;;4.80;1.20;;;20.70;99.90;;;;;;5052249;28;20074;-81
2022/08/26 05:49:54;;;;;;;6.28;1.20;;;20.70;99.90;;;;;;5053397;28;20466;-77
2022/08/26 05:52:20;;;;;;;7.13;1.30;;;20.60;99.90;;;;;;5044293;28;20057;-79
2022/08/26 05:54:46;;;;;;;8.18;1.80;;;20.50;99.90;;;;;;5046759;28;20056;-77
2022/08/26 05:57:12;;;;;;;10.30;1.40;;;20.60;99.90;;;;;;5052339;28;20112;-78
2022/08/26 05:59:38;;;;;;;12.13;1.60;;;21.00;99.90;;;;;;5053486;28;20087;-87
2022/08/26 06:02:05;;;;;;;14.73;2.00;;;21.20;99.90;;;;;;5052355;28;20884;-88
2022/08/26 06:04:31;;;;;;;11.73;2.17;;;21.10;99.90;;;;;;5049097;28;20039;-83
2022/08/26 06:06:57;;;;;;;9.02;1.73;;;20.90;99.90;;;;;;5051481;28;20435;-87
2022/08/26 06:09:23;;;;;;;13.20;2.30;;;20.80;99.90;;;;;;5052400;28;20104;-85
2022/08/26 06:11:49;;;;;;;13.15;1.90;;;21.00;99.90;;;;;;5052453;28;20477;-87
2022/08/26 06:14:16;;;;;;;14.55;2.72;;;20.80;99.90;;;;;;5052802;28;20021;-86
2022/08/26 06:16:43;;;;;;;13.80;1.77;;;21.20;99.90;;;;;;5052191;28;20358;-83
2022/08/26 06:19:11;;;;;;;13.30;1.77;;;21.20;99.90;;;;;;5052679;28;20025;-88
2022/08/26 06:21:38;;;;;;;6.38;1.35;;;21.30;99.90;;;;;;5052145;28;20381;-83
2022/08/26 06:27:03;;;;;;;5.13;1.10;;;21.10;99.90;;;;;;5052211;28;20445;-84
2022/08/26 06:29:33;;;;;;;8.20;1.50;;;21.20;99.90;;;;;;5051616;28;20037;-82
2022/08/26 06:31:59;;;;;;;14.20;1.83;;;21.20;99.90;;;;;;5052962;28;20033;-85
2022/08/26 06:34:29;;;;;;;13.10;1.30;;;20.90;99.90;;;;;;5053312;28;20033;-85
2022/08/26 06:36:57;;;;;;;13.32;2.30;;;20.80;99.90;;;;;;5052336;28;20118;-83
2022/08/26 06:39:23;;;;;;;14.75;2.28;;;20.90;99.90;;;;;;5052106;28;20492;-86
2022/08/26 06:41:49;;;;;;;6.57;1.20;;;21.00;99.90;;;;;;5053113;28;20029;-87
2022/08/26 06:44:17;;;;;;;14.48;1.65;;;21.20;99.90;;;;;;5053147;28;20092;-90
2022/08/26 06:46:43;;;;;;;9.98;1.77;;;21.20;99.90;;;;;;5051287;28;20029;-78
2022/08/26 06:49:09;;;;;;;15.88;1.30;;;21.10;99.90;;;;;;5043177;28;20033;-79
2022/08/26 06:51:37;;;;;;;10.40;1.70;;;21.10;99.90;;;;;;5050132;28;20041;-78
2022/08/26 06:54:04;;;;;;;12.45;2.10;;;21.20;99.90;;;;;;5051636;28;20024;-78
2022/08/26 06:56:40;;;;;;;14.95;2.00;;;21.10;99.90;;;;;;5052280;28;20025;-88
2022/08/26 06:59:07;;;;;;;10.70;1.38;;;21.20;99.90;;;;;;5051647;28;20448;-90
2022/08/26 07:01:37;;;;;;;7.82;1.60;;;21.40;99.90;;;;;;5039394;28;20032;-87
2022/08/26 07:04:05;;;;;;;9.60;1.70;;;21.50;99.90;;;;;;5063709;28;20029;-82
2022/08/26 07:06:37;;;;;;;11.15;1.60;;;21.30;99.90;;;;;;5062269;28;20032;-86
2022/08/26 07:09:05;;;;;;;13.68;1.48;;;21.10;99.90;;;;;;5056394;28;20377;-79
2022/08/26 07:11:33;;;;;;;13.27;2.08;;;20.80;99.90;;;;;;5059385;28;20469;-87
2022/08/26 07:14:00;;;;;;;8.38;1.55;;;21.00;99.90;;;;;;5058723;28;20020;-82
2022/08/26 07:16:26;;;;;;;6.43;1.20;;;21.00;99.90;;;;;;5055111;28;20033;-90
2022/08/26 07:18:53;;;;;;;5.57;1.20;;;20.90;99.90;;;;;;5081624;28;20091;-89
2022/08/26 07:21:21;;;;;;;5.68;1.23;;;21.00;99.90;;;;;;5061215;28;20021;-83
2022/08/26 07:23:52;;;;;;;8.60;1.45;;;21.10;99.90;;;;;;5064007;28;20033;-87
2022/08/26 07:26:24;;;;;;;7.50;1.30;;;21.30;99.90;;;;;;5080587;28;20029;-83
2022/08/26 07:28:52;;;;;;;8.43;1.73;;;21.40;99.90;;;;;;5055591;28;20041;-77
2022/08/26 07:31:20;;;;;;;6.93;1.23;;;21.30;99.90;;;;;;5053865;28;20118;-78
2022/08/26 07:33:46;;;;;;;8.05;1.67;;;21.20;99.90;;;;;;5053723;28;20024;-78
2022/08/26 07:36:13;;;;;;;8.77;1.55;;;21.00;99.90;;;;;;5053732;28;20025;-78
2022/08/26 07:38:40;;;;;;;6.38;1.20;;;21.10;99.90;;;;;;5051814;28;20017;-78
2022/08/26 07:41:07;;;;;;;11.75;1.33;;;21.10;99.90;;;;;;5052553;28;20501;-77
2022/08/26 07:43:35;;;;;;;7.65;1.52;;;21.00;99.90;;;;;;5054419;28;20021;-77
2022/08/26 07:46:02;;;;;;;14.15;1.70;;;21.30;99.90;;;;;;5054467;28;20028;-78
2022/08/26 07:48:30;;;;;;;12.63;1.40;;;21.40;99.90;;;;;;5053343;28;20033;-77
2022/08/26 07:50:56;;;;;;;11.10;1.50;;;21.10;99.90;;;;;;5053757;28;20500;-78
2022/08/26 07:53:22;;;;;;;14.23;2.17;;;21.40;99.90;;;;;;5061739;28;20036;-77
2022/08/26 07:55:48;;;;;;;18.10;1.75;;;21.40;99.90;;;;;;5056953;28;20504;-76
2022/08/26 07:58:15;;;;;;;21.30;1.63;;;21.40;99.90;;;;;;5056868;28;20041;-77
2022/08/26 08:00:41;;;;;;;12.93;1.40;;;21.50;99.90;;;;;;5056649;28;20132;-76
2022/08/26 08:03:07;;;;;;;10.63;1.35;;;21.30;99.90;;;;;;5057854;28;20056;-79
2022/08/26 08:05:35;;;;;;;14.27;1.67;;;21.40;99.90;;;;;;5056538;28;20021;-77
2022/08/26 08:08:06;;;;;;;9.73;1.75;;;21.50;99.90;;;;;;5061639;28;20489;-86
2022/08/26 08:10:35;;;;;;;9.43;1.63;;;21.60;99.90;;;;;;5064988;28;20537;-79
2022/08/26 08:13:02;;;;;;;9.48;1.25;;;21.70;99.90;;;;;;5055948;28;20541;-88
2022/08/26 08:15:31;;;;;;;7.97;0.90;;;21.60;99.90;;;;;;5038411;28;20021;-84
2022/08/26 08:17:57;;;;;;;11.07;2.17;;;21.70;99.90;;;;;;5053429;28;20021;-89
2022/08/26 08:20:24;;;;;;;8.13;1.23;;;21.60;99.90;;;;;;5052037;28;20025;-89
2022/08/26 08:22:51;;;;;;;8.18;1.33;;;21.20;99.90;;;;;;5049390;28;20413;-88
2022/08/26 08:25:17;;;;;;;4.22;1.25;;;21.20;99.90;;;;;;5062919;28;20060;-86
2022/08/26 08:27:44;;;;;;;5.45;1.40;;;21.50;99.90;;;;;;5055236;28;20155;-85
2022/08/26 08:30:12;;;;;;;13.68;2.75;;;21.70;99.90;;;;;;5054681;28;20028;-87
2022/08/26 08:32:38;;;;;;;8.43;1.10;;;22.00;99.90;;;;;;5056645;28;20420;-77
2022/08/26 08:35:07;;;;;;;5.60;0.77;;;22.20;99.90;;;;;;5066540;28;20021;-87
2022/08/26 08:37:34;;;;;;;2.92;0.95;;;22.10;99.90;;;;;;5064126;28;20024;-78
2022/08/26 08:40:00;;;;;;;3.63;0.75;;;22.00;99.90;;;;;;5060295;28;20486;-88
2022/08/26 08:42:29;;;;;;;4.40;0.98;;;22.00;99.90;;;;;;5060188;28;20032;-88
2022/08/26 08:45:00;;;;;;;6.00;1.02;;;22.10;99.90;;;;;;5059507;28;20032;-82
2022/08/26 08:47:41;;;;;;;6.03;1.00;;;22.20;99.90;;;;;;5073131;28;20024;-84
2022/08/26 08:50:28;;;;;;;6.03;1.08;;;22.30;99.90;;;;;;5056164;28;20041;-82
2022/08/26 08:53:01;;;;;;;6.20;1.70;;;22.20;99.90;;;;;;5066196;28;20079;-80
2022/08/26 08:55:39;;;;;;;6.30;1.20;;;22.40;99.90;;;;;;5065673;28;20422;-80
2022/08/26 08:58:10;;;;;;;7.05;1.13;;;22.10;99.90;;;;;;5064251;28;20024;-78
2022/08/26 09:01:03;;;;;;;13.73;1.10;;;21.70;99.90;;;;;;5054179;28;20037;-81
2022/08/26 09:03:44;;;;;;;5.25;1.13;;;21.60;99.90;;;;;;5046738;28;20068;-83
2022/08/26 09:06:16;;;;;;;7.72;1.02;;;21.70;99.90;;;;;;5071835;28;20474;-85
2022/08/26 09:08:43;;;;;;;;;;;21.80;99.90;;;;;;5052409;28;20064;-79
2022/08/26 09:11:09;;;;;;;2.75;0.63;;;21.80;99.90;;;;;;5095984;28;19976;-80
2022/08/26 09:13:37;;;;;;;8.88;1.35;;;21.70;99.90;;;;;;5062429;28;20021;-79
2022/08/26 09:16:07;;;;;;;5.15;0.98;;;21.90;99.90;;;;;;5063476;28;20116;-84
2022/08/26 09:18:51;;;;;;;5.13;1.10;;;22.00;99.90;;;;;;5060978;28;20029;-79
2022/08/26 09:21:19;;;;;;;6.93;1.00;;;21.90;99.90;;;;;;5075566;28;20076;-78
2022/08/26 09:24:04;;;;;;;5.38;0.93;;;22.00;99.90;;;;;;5061449;28;20377;-85
2022/08/26 09:26:47;;;;;;;5.85;0.85;;;22.00;99.90;;;;;;5061416;28;20127;-84
2022/08/26 09:29:26;;;;;;;4.78;0.88;;;22.20;99.90;;;;;;5076838;28;20028;-82
2022/08/26 09:32:18;;;;;;;2.20;0.80;;;22.40;99.90;;;;;;5061924;28;20029;-82
2022/08/26 09:34:53;;;;;;;5.32;1.00;;;22.20;99.90;;;;;;5063248;28;20025;-85
2022/08/26 09:37:34;;;;;;;3.83;0.90;;;22.50;99.90;;;;;;5064476;28;20028;-85
2022/08/26 09:40:26;;;;;;;3.03;0.75;;;22.50;99.90;;;;;;5067621;28;20043;-89
2022/08/26 09:43:22;;;;;;;12.73;1.08;;;22.30;99.90;;;;;;5069861;28;20116;-85
2022/08/26 09:45:54;;;;;;;2.22;0.60;;;22.60;99.90;;;;;;5089211;28;20056;-85
2022/08/26 09:48:34;;;;;;;4.15;1.00;;;22.10;99.90;;;;;;5070039;28;20037;-90
2022/08/26 09:51:27;;;;;;;5.22;1.15;;;22.00;99.90;;;;;;5059175;28;20033;-90
2022/08/26 09:53:59;;;;;;;3.03;0.88;;;22.20;99.90;;;;;;5060244;28;20497;-87
2022/08/26 09:56:31;;;;;;;4.93;0.80;;;22.10;99.90;;;;;;5069280;28;20493;-90
2022/08/26 09:59:02;;;;;;;1.67;0.80;;;22.10;99.90;;;;;;5067000;28;20029;-84
2022/08/26 10:01:41;;;;;;;2.80;0.80;;;22.20;99.90;;;;;;5065335;28;20075;-89
2022/08/26 10:04:25;;;;;;;2.22;0.85;;;22.40;99.90;;;;;;5069429;28;20029;-87
2022/08/26 10:06:57;;;;;;;7.50;0.60;;;22.80;99.90;;;;;;5061604;28;20033;-86
2022/08/26 10:09:24;;;;;;;;;;;22.60;99.90;;;;;;5071777;28;20466;-84
2022/08/26 10:12:20;;;;;;;8.10;0.95;;;22.20;99.90;;;;;;5095807;28;19931;-82
2022/08/26 10:14:52;;;;;;;3.58;1.08;;;22.20;99.90;;;;;;5062512;28;20037;-81
2022/08/26 10:17:31;;;;;;;4.70;0.77;;;22.20;99.90;;;;;;5054177;28;20036;-83
2022/08/26 10:20:05;;;;;;;5.03;0.60;;;22.20;99.90;;;;;;5058711;28;20075;-88
2022/08/26 10:23:12;;;;;;;11.00;1.05;;;21.80;99.90;;;;;;5061146;28;20037;-89
2022/08/26 10:26:04;;;;;;;9.90;0.95;;;22.10;99.90;;;;;;5070718;28;20381;-85
2022/08/26 10:28:54;;;;;;;8.57;0.68;;;21.90;99.90;;;;;;5061096;28;20029;-83
2022/08/26 10:31:41;;;;;;;4.47;1.17;;;22.10;99.90;;;;;;5062021;28;20032;-85
2022/08/26 10:34:09;;;;;;;1.77;0.73;;;22.50;99.90;;;;;;5064804;28;20154;-82
2022/08/26 10:36:58;;;;;;;7.50;0.90;;;22.70;99.90;;;;;;5062952;28;20032;-82
2022/08/26 10:39:38;;;;;;;5.97;1.25;;;22.50;99.90;;;;;;5063428;28;20021;-80
2022/08/26 10:42:22;;;;;;;4.07;0.80;;;22.20;99.90;;;;;;5064019;28;20041;-81
2022/08/26 10:44:54;;;;;;;7.43;1.30;;;22.20;99.90;;;;;;5066459;28;20032;-79
2022/08/26 10:47:24;;;;;;;;;;;22.30;99.90;;;;;;5063989;28;20033;-80
2022/08/26 10:49:52;;;;;;;3.75;1.15;;;21.90;99.90;;;;;;5056244;28;19963;-81
2022/08/26 10:52:39;;;;;;;4.13;0.70;;;22.20;99.90;;;;;;5058208;28;20017;-80
2022/08/26 10:55:19;;;;;;;5.18;1.10;;;22.50;99.90;;;;;;5051008;28;20067;-87
2022/08/26 10:58:02;;;;;;;14.70;2.58;;;22.50;99.90;;;;;;5053878;28;20033;-81
2022/08/26 11:03:31;;;;;;;7.90;1.30;;;22.80;99.90;;;;;;5056564;28;20037;-85
2022/08/26 11:06:23;;;;;;;10.75;1.30;;;22.70;99.90;;;;;;5052519;28;20397;-84
2022/08/26 11:08:52;;;;;;;4.32;1.08;;;22.90;99.90;;;;;;5051511;28;20025;-86
2022/08/26 11:11:40;;;;;;;6.05;1.10;;;23.00;99.90;;;;;;5051686;28;20033;-87
2022/08/26 11:14:28;;;;;;;7.20;1.67;;;23.10;99.90;;;;;;5067682;28;20031;-85
2022/08/26 11:16:57;;;;;;;6.25;1.23;;;23.10;99.90;;;;;;5048297;28;20087;-87
2022/08/26 11:19:52;;;;;;;7.57;1.20;;;23.30;99.90;;;;;;5051323;28;20477;-87
2022/08/26 11:22:27;;;;;;;7.80;1.30;;;23.70;99.90;;;;;;5039488;28;20041;-86
2022/08/26 11:24:56;;;;;;;4.05;1.30;;;23.60;99.90;;;;;;5052125;28;20075;-82
2022/08/26 11:27:24;;;;;;;4.00;1.10;;;23.30;99.90;;;;;;5056009;28;20037;-86
2022/08/26 11:30:05;;;;;;;4.97;1.10;;;23.40;99.90;;;;;;5055559;28;20037;-83
2022/08/26 11:32:34;;;;;;;4.40;0.93;;;23.40;99.90;;;;;;5064794;28;20143;-86
2022/08/26 11:35:33;;;;;;;5.57;1.13;;;23.10;99.90;;;;;;5056356;28;20079;-86
2022/08/26 11:38:27;;;;;;;11.13;1.58;;;22.90;99.90;;;;;;5039352;28;20040;-86
2022/08/26 11:41:07;;;;;;;12.52;1.65;;;23.10;99.90;;;;;;5053066;28;20052;-84
2022/08/26 11:43:36;;;;;;;4.60;1.10;;;23.10;99.90;;;;;;5055849;28;20025;-83
2022/08/26 11:46:10;;;;;;;6.38;1.08;;;23.00;99.90;;;;;;5055546;28;20365;-82
2022/08/26 11:48:38;;;;;;;4.72;1.60;;;23.30;99.90;;;;;;5055782;28;20103;-78
2022/08/26 11:51:21;;;;;;;7.60;1.00;;;23.10;99.90;;;;;;5047553;28;20029;-85
2022/08/26 11:53:47;;;;;;;10.65;1.33;;;22.80;99.90;;;;;;5052397;28;20017;-84
2022/08/26 11:56:26;;;;;;;4.30;1.40;;;23.00;99.90;;;;;;5052844;28;20434;-81
2022/08/26 11:59:00;;;;;;;15.20;1.92;;;23.40;99.90;;;;;;5051881;28;20362;-80
2022/08/26 12:01:29;;;;;;;10.77;2.20;;;23.50;99.90;;;;;;5054454;28;20021;-82
2022/08/26 12:03:56;;;;;;;7.38;1.27;;;23.30;99.90;;;;;;5053052;28;20428;-84
2022/08/26 12:06:29;;;;;;;6.70;1.70;;;23.30;99.90;;;;;;5066879;28;20109;-82
2022/08/26 12:09:00;;;;;;;6.20;1.20;;;23.50;99.90;;;;;;5048805;28;20401;-84
2022/08/26 12:11:32;;;;;;;6.68;1.25;;;23.50;99.90;;;;;;5054059;28;20061;-84
2022/08/26 12:13:59;;;;;;;6.00;1.20;;;23.70;99.90;;;;;;5045417;28;20397;-78
2022/08/26 12:16:38;;;;;;;7.55;1.10;;;23.30;99.90;;;;;;5054231;28;20528;-79
2022/08/26 12:19:25;;;;;;;10.02;1.45;;;23.10;99.90;;;;;;5050105;28;20101;-84
2022/08/26 12:21:58;;;;;;;13.32;1.77;;;23.30;99.90;;;;;;5053252;28;20020;-78
2022/08/26 12:24:24;;;;;;;7.35;1.60;;;23.60;99.90;;;;;;5054056;28;20031;-78
2022/08/26 12:27:20;;;;;;;11.43;1.50;;;23.20;99.90;;;;;;5053672;28;20029;-77
2022/08/26 12:30:01;;;;;;;16.77;1.67;;;23.50;99.90;;;;;;5053310;28;20029;-82
2022/08/26 12:32:30;;;;;;;5.07;2.00;;;24.20;99.90;;;;;;5053527;28;20148;-83
2022/08/26 12:34:56;;;;;;;3.80;1.30;;;24.20;99.90;;;;;;5053722;28;20024;-83
2022/08/26 12:37:32;;;;;;;6.63;1.20;;;24.40;99.90;;;;;;5036392;28;20497;-83
2022/08/26 12:40:26;;;;;;;5.68;1.52;;;24.20;99.90;;;;;;5052202;28;20095;-82
2022/08/26 12:42:52;;;;;;;5.50;1.40;;;24.30;99.90;;;;;;5055226;28;20029;-85
2022/08/26 12:45:33;;;;;;;6.22;1.08;;;24.20;99.90;;;;;;5053473;28;20135;-75
2022/08/26 12:48:05;;;;;;;3.83;1.02;;;24.30;99.90;;;;;;5054548;28;20528;-75
2022/08/26 12:50:38;;;;;;;5.25;1.13;;;24.50;99.90;;;;;;5054148;28;20037;-76
2022/08/26 12:53:14;;;;;;;8.85;1.20;;;24.50;99.90;;;;;;5054443;28;20021;-74
2022/08/26 12:55:46;;;;;;;7.70;1.50;;;24.50;99.90;;;;;;5053523;28;20041;-74
2022/08/26 12:58:15;;;;;;;9.05;1.58;;;25.10;99.90;;;;;;5054282;28;20036;-74
2022/08/26 13:00:43;;;;;;;4.72;1.30;;;25.30;99.90;;;;;;5052830;28;20050;-74
2022/08/26 13:03:33;;;;;;;5.28;1.45;;;25.40;99.90;;;;;;5054095;28;20029;-77
2022/08/26 13:06:13;;;;;;;4.72;1.33;;;25.40;99.90;;;;;;5050162;28;20036;-75
2022/08/26 13:08:41;;;;;;;7.10;1.55;;;25.00;99.90;;;;;;5068579;28;20074;-73
2022/08/26 13:11:17;;;;;;;6.13;1.52;;;24.10;99.90;;;;;;5052630;28;20093;-74
2022/08/26 13:13:44;;;;;;;8.57;1.98;;;24.40;99.90;;;;;;5057059;28;20107;-72